Time;durP1;ratioP1;P1;durP2;ratioP2;P2;SDS_P1;SDS_P2;PMS_P1;PMS_P2;Temp;Humidity;BMP_temperature;BMP_pressure;BME280_temperature;BME280_humidity;BME280_pressure;Samples;Min_cycle;Max_cycle;Signal;HPM_P1;HPM_P2
2023/10/31 00:01:32;;;;;;;8.15;4.38;;;7.50;99.90;;;;;;4994860;28;20039;-57
2023/10/31 00:03:58;;;;;;;5.70;3.85;;;7.50;99.90;;;;;;4994461;28;20506;-57
2023/10/31 00:06:25;;;;;;;6.82;4.05;;;7.50;99.90;;;;;;4994621;28;20133;-57
2023/10/31 00:08:52;;;;;;;7.88;4.28;;;7.40;99.90;;;;;;4994448;28;20415;-55
2023/10/31 00:11:19;;;;;;;8.60;4.25;;;7.40;99.90;;;;;;4994771;28;20129;-55
2023/10/31 00:13:46;;;;;;;6.53;4.00;;;7.40;99.90;;;;;;4994417;28;20042;-55
2023/10/31 00:16:13;;;;;;;5.65;3.95;;;7.40;99.90;;;;;;4994547;28;20097;-57
2023/10/31 00:18:40;;;;;;;6.97;3.83;;;7.40;99.90;;;;;;4994353;28;20043;-54
2023/10/31 00:21:06;;;;;;;5.18;3.95;;;7.30;99.90;;;;;;4999342;28;20093;-62
2023/10/31 00:23:33;;;;;;;7.55;3.85;;;7.30;99.90;;;;;;5033971;28;20045;-62
2023/10/31 00:26:00;;;;;;;6.75;3.78;;;7.30;99.90;;;;;;5033492;28;20069;-63
2023/10/31 00:28:27;;;;;;;8.57;4.18;;;7.30;99.90;;;;;;5033427;28;20045;-62
2023/10/31 00:30:55;;;;;;;7.13;3.70;;;7.30;99.90;;;;;;5033895;28;20053;-63
2023/10/31 00:33:21;;;;;;;7.35;3.92;;;7.20;99.90;;;;;;5016196;28;20107;-62
2023/10/31 00:35:48;;;;;;;6.68;3.70;;;7.20;99.90;;;;;;5015777;28;20048;-63
2023/10/31 00:38:15;;;;;;;6.55;3.72;;;7.20;99.90;;;;;;5033159;28;20049;-63
2023/10/31 00:40:42;;;;;;;5.80;3.83;;;7.20;99.90;;;;;;5033524;28;20474;-62
2023/10/31 00:43:09;;;;;;;8.70;3.58;;;7.10;99.90;;;;;;5033528;28;20038;-62
2023/10/31 00:45:36;;;;;;;7.78;3.38;;;7.10;99.90;;;;;;5033608;28;20061;-62
2023/10/31 00:48:03;;;;;;;7.13;3.65;;;7.10;99.90;;;;;;5015781;28;20045;-62
2023/10/31 00:50:30;;;;;;;5.43;3.50;;;7.10;99.90;;;;;;5033195;28;20140;-62
2023/10/31 00:52:57;;;;;;;5.75;3.47;;;7.10;99.90;;;;;;5033813;28;20041;-61
2023/10/31 00:55:24;;;;;;;6.03;3.97;;;7.10;99.90;;;;;;5033296;28;20057;-62
2023/10/31 00:57:51;;;;;;;7.05;3.85;;;7.10;99.90;;;;;;5033559;28;20048;-61
2023/10/31 01:00:18;;;;;;;8.90;4.00;;;7.00;99.90;;;;;;5033684;28;20042;-61
2023/10/31 01:02:45;;;;;;;8.32;3.78;;;7.00;99.90;;;;;;5033685;28;20151;-62
2023/10/31 01:05:12;;;;;;;8.32;3.97;;;7.00;99.90;;;;;;5033025;28;20049;-61
2023/10/31 01:07:38;;;;;;;8.65;3.35;;;7.00;99.90;;;;;;5033075;28;20041;-61
2023/10/31 01:10:05;;;;;;;4.95;3.25;;;7.00;99.90;;;;;;5018276;28;20049;-61
2023/10/31 01:12:32;;;;;;;5.78;3.20;;;7.00;99.90;;;;;;5037591;28;20045;-62
2023/10/31 01:15:00;;;;;;;11.07;3.63;;;6.90;99.90;;;;;;5019574;28;20037;-61
2023/10/31 01:17:27;;;;;;;7.80;3.50;;;6.90;99.90;;;;;;5037386;28;20419;-62
2023/10/31 01:19:55;;;;;;;5.53;3.17;;;6.90;99.90;;;;;;5019559;28;20092;-62
2023/10/31 01:22:21;;;;;;;5.47;2.90;;;6.90;99.90;;;;;;5037126;28;20117;-62
2023/10/31 01:24:48;;;;;;;5.63;3.60;;;6.90;99.90;;;;;;5037023;28;20100;-57
2023/10/31 01:27:15;;;;;;;5.72;3.20;;;6.90;99.90;;;;;;5036681;28;20410;-55
2023/10/31 01:29:42;;;;;;;4.68;2.92;;;6.90;99.90;;;;;;5036798;28;20068;-57
2023/10/31 01:32:09;;;;;;;5.30;2.75;;;6.80;99.90;;;;;;5036641;28;20091;-58
2023/10/31 01:34:47;;;;;;;6.45;3.33;;;6.80;99.90;;;;;;5019070;28;20045;-57
2023/10/31 01:37:14;;;;;;;6.30;3.03;;;6.70;99.90;;;;;;5036770;28;20057;-57
2023/10/31 01:39:41;;;;;;;6.32;3.08;;;6.80;99.90;;;;;;5036710;28;20050;-62
2023/10/31 01:42:08;;;;;;;6.15;3.10;;;6.80;99.90;;;;;;5019299;28;20049;-61
2023/10/31 01:44:35;;;;;;;4.97;3.22;;;6.80;99.90;;;;;;5019030;28;20140;-62
2023/10/31 01:47:01;;;;;;;5.95;3.28;;;6.80;99.90;;;;;;5036852;28;20041;-61
2023/10/31 01:49:28;;;;;;;7.95;3.53;;;6.80;99.90;;;;;;5036490;28;20048;-62
2023/10/31 01:51:55;;;;;;;5.22;3.30;;;6.70;99.90;;;;;;5036632;28;20041;-62
2023/10/31 01:54:23;;;;;;;6.07;3.33;;;6.70;99.90;;;;;;5036154;28;20048;-62
2023/10/31 01:56:53;;;;;;;4.88;3.05;;;6.70;99.90;;;;;;5036750;28;20491;-62
2023/10/31 01:59:20;;;;;;;6.35;3.55;;;6.70;99.90;;;;;;5018583;28;20041;-62
2023/10/31 02:01:47;;;;;;;4.60;3.20;;;6.70;99.90;;;;;;5018442;28;20066;-62
2023/10/31 02:04:14;;;;;;;4.35;3.10;;;6.70;99.90;;;;;;5036705;28;20128;-61
2023/10/31 02:06:40;;;;;;;5.10;3.20;;;6.70;99.90;;;;;;5018889;28;20056;-60
2023/10/31 02:09:07;;;;;;;4.95;2.83;;;6.60;99.90;;;;;;5036130;28;20050;-60
2023/10/31 02:11:34;;;;;;;4.63;2.92;;;6.60;99.90;;;;;;5036297;28;20399;-60
2023/10/31 02:14:01;;;;;;;5.72;3.05;;;6.60;99.90;;;;;;5018580;28;20128;-60
2023/10/31 02:16:27;;;;;;;7.80;3.40;;;6.60;99.90;;;;;;5018065;28;20490;-60
2023/10/31 02:18:54;;;;;;;4.85;3.17;;;6.60;99.90;;;;;;5036204;28;20091;-60
2023/10/31 02:21:21;;;;;;;4.38;3.03;;;6.60;99.90;;;;;;5017559;28;20103;-60
2023/10/31 02:23:48;;;;;;;6.82;3.15;;;6.50;99.90;;;;;;5018261;28;20074;-60
2023/10/31 02:26:15;;;;;;;5.15;3.20;;;6.60;99.90;;;;;;5036121;28;20134;-60
2023/10/31 02:28:42;;;;;;;7.32;3.15;;;6.60;99.90;;;;;;5035790;28;20049;-56
2023/10/31 02:31:09;;;;;;;5.75;3.10;;;6.60;99.90;;;;;;5036244;28;20042;-56
2023/10/31 02:33:37;;;;;;;4.00;2.50;;;6.60;99.90;;;;;;5035799;28;20068;-54
2023/10/31 02:36:04;;;;;;;3.35;2.45;;;6.50;99.90;;;;;;5018253;28;20037;-56
2023/10/31 02:38:31;;;;;;;6.90;2.70;;;6.50;99.90;;;;;;4978669;28;20082;-55
2023/10/31 02:40:57;;;;;;;5.90;2.55;;;6.50;99.90;;;;;;4978867;28;20039;-54
2023/10/31 02:43:24;;;;;;;5.20;2.65;;;6.50;99.90;;;;;;4996089;28;20042;-55
2023/10/31 02:45:51;;;;;;;8.32;3.08;;;6.50;99.90;;;;;;4962692;28;20053;-56
2023/10/31 02:48:18;;;;;;;4.65;2.47;;;6.50;99.90;;;;;;4996084;28;20444;-54
2023/10/31 02:50:45;;;;;;;5.85;2.47;;;6.50;99.90;;;;;;4979110;28;20046;-55
2023/10/31 02:53:11;;;;;;;5.28;2.50;;;6.50;99.90;;;;;;4996466;28;20130;-56
2023/10/31 02:55:38;;;;;;;4.65;2.10;;;6.50;99.90;;;;;;4962544;28;20454;-57
2023/10/31 02:58:05;;;;;;;5.00;2.00;;;6.50;99.90;;;;;;4996151;28;20042;-53
2023/10/31 03:00:32;;;;;;;4.78;2.30;;;6.50;99.90;;;;;;4978317;28;20050;-56
2023/10/31 03:02:59;;;;;;;4.50;1.80;;;6.50;99.90;;;;;;4978582;28;20050;-60
2023/10/31 03:05:26;;;;;;;3.17;1.88;;;6.50;99.90;;;;;;4996197;28;20094;-60
2023/10/31 03:07:53;;;;;;;3.28;2.30;;;6.50;99.90;;;;;;4978481;28;20145;-60
2023/10/31 03:10:19;;;;;;;3.58;2.10;;;6.50;99.90;;;;;;4995924;28;20121;-60
2023/10/31 03:12:46;;;;;;;3.22;2.13;;;6.50;99.90;;;;;;4995646;28;20042;-60
2023/10/31 03:15:13;;;;;;;6.38;2.70;;;6.50;99.90;;;;;;4978202;28;20049;-60
2023/10/31 03:17:40;;;;;;;3.65;2.50;;;6.50;99.90;;;;;;4995266;28;20129;-61
2023/10/31 03:20:06;;;;;;;7.88;2.28;;;6.50;99.90;;;;;;4995373;28;20047;-60
2023/10/31 03:22:33;;;;;;;4.50;2.42;;;6.50;99.90;;;;;;4978139;28;20450;-60
2023/10/31 03:25:01;;;;;;;4.50;2.30;;;6.60;99.90;;;;;;4978160;28;20112;-60
2023/10/31 03:27:27;;;;;;;6.68;1.90;;;6.60;99.90;;;;;;4977749;28;20077;-60
2023/10/31 03:29:55;;;;;;;4.20;1.90;;;6.60;99.90;;;;;;4995480;28;20052;-55
2023/10/31 03:32:21;;;;;;;3.20;1.95;;;6.70;99.90;;;;;;4977847;28;20551;-56
2023/10/31 03:34:48;;;;;;;9.43;2.10;;;6.70;99.90;;;;;;4995201;28;20403;-55
2023/10/31 03:37:15;;;;;;;6.43;2.00;;;6.70;99.90;;;;;;4995282;28;20054;-54
2023/10/31 03:39:42;;;;;;;4.10;1.65;;;6.80;99.90;;;;;;4977565;28;20058;-56
2023/10/31 03:42:09;;;;;;;4.03;1.55;;;6.80;99.90;;;;;;4995259;28;20113;-51
2023/10/31 03:44:36;;;;;;;3.78;1.80;;;6.80;99.90;;;;;;4995197;28;20047;-56
2023/10/31 03:47:02;;;;;;;3.08;1.73;;;6.90;99.90;;;;;;4977710;28;20050;-54
2023/10/31 03:49:29;;;;;;;3.53;1.45;;;6.90;99.90;;;;;;4977763;28;20080;-55
2023/10/31 03:51:56;;;;;;;3.10;1.50;;;7.00;99.90;;;;;;4994649;28;20505;-54
2023/10/31 03:54:23;;;;;;;3.47;1.60;;;7.00;99.90;;;;;;4994782;28;20043;-55
2023/10/31 03:56:49;;;;;;;3.17;1.60;;;7.10;99.90;;;;;;4994754;28;20046;-53
2023/10/31 03:59:16;;;;;;;3.55;1.40;;;7.10;99.90;;;;;;4995166;28;20456;-56
2023/10/31 04:01:43;;;;;;;3.00;1.55;;;7.10;99.90;;;;;;4977517;28;20133;-54
2023/10/31 04:04:10;;;;;;;4.25;1.60;;;7.10;99.90;;;;;;4994518;28;20048;-53
2023/10/31 04:06:40;;;;;;;4.03;1.42;;;7.20;99.90;;;;;;4994770;28;20432;-55
2023/10/31 04:09:07;;;;;;;2.72;1.45;;;7.20;99.90;;;;;;4994532;28;20049;-55
2023/10/31 04:11:34;;;;;;;6.90;1.85;;;7.30;99.90;;;;;;4977729;28;20040;-56
2023/10/31 04:14:01;;;;;;;4.00;1.65;;;7.30;99.90;;;;;;4977048;28;20062;-55
2023/10/31 04:16:27;;;;;;;3.38;1.33;;;7.30;99.90;;;;;;4994556;28;20038;-54
2023/10/31 04:18:54;;;;;;;2.95;1.30;;;7.40;99.90;;;;;;4994641;28;20047;-53
2023/10/31 04:21:21;;;;;;;5.57;1.35;;;7.40;99.90;;;;;;4994568;28;20117;-56
2023/10/31 04:23:48;;;;;;;4.53;1.30;;;7.40;99.90;;;;;;4994264;28;20042;-53
2023/10/31 04:26:15;;;;;;;3.80;1.73;;;7.40;99.90;;;;;;4994382;28;20049;-57
2023/10/31 04:28:42;;;;;;;4.43;1.50;;;7.50;99.90;;;;;;4994591;28;20042;-55
2023/10/31 04:31:09;;;;;;;6.38;1.48;;;7.50;99.90;;;;;;4994216;28;20046;-56
2023/10/31 04:33:36;;;;;;;2.58;1.30;;;7.50;99.90;;;;;;4994574;28;20053;-54
2023/10/31 04:36:03;;;;;;;4.97;1.42;;;7.50;99.90;;;;;;4994169;28;20042;-55
2023/10/31 04:38:30;;;;;;;3.08;1.67;;;7.50;99.90;;;;;;4993727;28;20109;-55
2023/10/31 04:40:57;;;;;;;4.07;1.73;;;7.50;99.90;;;;;;4994424;28;20046;-56
2023/10/31 04:43:24;;;;;;;2.78;1.40;;;7.60;99.90;;;;;;4993626;28;20049;-54
2023/10/31 04:45:50;;;;;;;3.55;1.77;;;7.60;99.90;;;;;;4994089;28;20042;-55
2023/10/31 04:48:17;;;;;;;5.47;2.20;;;7.60;99.90;;;;;;4994103;28;20042;-55
2023/10/31 04:50:44;;;;;;;3.67;1.80;;;7.60;99.90;;;;;;4994343;28;20074;-54
2023/10/31 04:53:11;;;;;;;3.45;2.20;;;7.70;99.90;;;;;;4993760;28;20388;-56
2023/10/31 04:55:38;;;;;;;5.32;1.55;;;7.70;99.90;;;;;;4994028;28;20124;-54
2023/10/31 04:58:05;;;;;;;3.67;1.73;;;7.70;99.90;;;;;;4976869;28;20395;-55
2023/10/31 05:00:31;;;;;;;6.07;1.95;;;7.70;99.90;;;;;;4994312;28;20061;-55
2023/10/31 05:02:59;;;;;;;2.53;1.60;;;7.80;99.90;;;;;;4994222;28;20383;-55
2023/10/31 05:05:26;;;;;;;3.05;2.00;;;7.80;99.90;;;;;;4993956;28;20110;-54
2023/10/31 05:07:53;;;;;;;3.83;1.52;;;7.80;99.90;;;;;;4994181;28;20046;-55
2023/10/31 05:10:20;;;;;;;3.65;1.50;;;7.80;99.90;;;;;;4994078;28;20038;-56
2023/10/31 05:12:47;;;;;;;3.17;1.55;;;7.90;99.90;;;;;;4977004;28;20042;-55
2023/10/31 05:15:14;;;;;;;3.22;1.55;;;7.90;99.90;;;;;;4993562;28;20043;-56
2023/10/31 05:17:40;;;;;;;3.33;1.70;;;7.90;99.90;;;;;;4993868;28;20038;-56
2023/10/31 05:20:08;;;;;;;4.13;1.70;;;7.90;99.90;;;;;;4976116;28;20451;-55
2023/10/31 05:22:35;;;;;;;2.95;1.60;;;8.00;99.90;;;;;;4976875;28;20042;-54
2023/10/31 05:25:02;;;;;;;2.95;2.00;;;8.00;99.90;;;;;;4993825;28;20045;-55
2023/10/31 05:27:29;;;;;;;5.43;2.80;;;8.00;99.90;;;;;;4993616;28;20526;-55
2023/10/31 05:30:00;;;;;;;3.30;1.63;;;8.10;99.90;;;;;;4993433;28;20543;-55
2023/10/31 05:32:27;;;;;;;4.63;1.95;;;8.10;99.90;;;;;;4993662;28;20038;-56
2023/10/31 05:34:54;;;;;;;2.85;2.03;;;8.10;99.90;;;;;;4993724;28;20081;-57
2023/10/31 05:37:23;;;;;;;3.80;1.70;;;8.10;99.90;;;;;;4993627;28;20125;-57
2023/10/31 05:39:50;;;;;;;4.15;1.98;;;8.10;99.90;;;;;;4993747;28;20038;-57
2023/10/31 05:42:17;;;;;;;5.28;2.13;;;8.10;99.90;;;;;;4993992;28;20113;-57
2023/10/31 05:44:44;;;;;;;5.65;2.40;;;8.20;99.90;;;;;;4993987;28;20137;-55
2023/10/31 05:47:10;;;;;;;2.78;2.10;;;8.20;99.90;;;;;;4976231;28;20045;-56
2023/10/31 05:49:37;;;;;;;4.55;2.13;;;8.20;99.90;;;;;;4993906;28;20089;-56
2023/10/31 05:52:04;;;;;;;4.22;1.90;;;8.20;99.90;;;;;;4993758;28;20042;-56
2023/10/31 05:54:31;;;;;;;3.33;1.83;;;8.20;99.90;;;;;;4993601;28;20042;-54
2023/10/31 05:56:57;;;;;;;4.50;2.33;;;8.20;99.90;;;;;;4995678;28;20042;-62
2023/10/31 05:59:25;;;;;;;3.92;2.17;;;8.20;99.90;;;;;;4997046;28;20125;-58
2023/10/31 06:01:52;;;;;;;4.18;2.22;;;8.20;99.90;;;;;;4997348;28;20049;-57
2023/10/31 06:04:19;;;;;;;4.90;2.00;;;8.10;99.90;;;;;;4979190;28;20596;-56
2023/10/31 06:06:45;;;;;;;4.47;2.35;;;8.10;99.90;;;;;;4997092;28;20105;-57
2023/10/31 06:09:14;;;;;;;6.20;2.47;;;8.10;99.90;;;;;;4996685;28;20054;-57
2023/10/31 06:11:41;;;;;;;6.50;2.60;;;8.10;99.90;;;;;;4996804;28;20050;-55
2023/10/31 06:14:08;;;;;;;4.40;2.45;;;8.10;99.90;;;;;;4996775;28;20129;-55
2023/10/31 06:16:35;;;;;;;4.88;2.25;;;8.00;99.90;;;;;;4996766;28;20062;-55
2023/10/31 06:19:01;;;;;;;5.22;2.65;;;8.00;99.90;;;;;;4996379;28;20062;-57
2023/10/31 06:21:28;;;;;;;4.43;2.60;;;8.00;99.90;;;;;;4979002;28;20046;-57
2023/10/31 06:23:55;;;;;;;4.75;2.50;;;8.00;99.90;;;;;;4996503;28;20070;-55
2023/10/31 06:26:22;;;;;;;8.65;2.80;;;8.00;99.90;;;;;;4996395;28;20495;-57
2023/10/31 06:28:49;;;;;;;5.40;2.55;;;8.00;99.90;;;;;;4996074;28;20530;-55
2023/10/31 06:31:35;;;;;;;10.02;4.07;;;8.00;99.90;;;;;;4996875;28;20042;-55
2023/10/31 06:34:02;;;;;;;7.10;3.60;;;8.00;99.90;;;;;;4996458;28;20050;-54
2023/10/31 06:36:29;;;;;;;8.10;3.70;;;8.00;99.90;;;;;;4996229;28;20050;-61
2023/10/31 06:38:56;;;;;;;6.13;3.42;;;8.00;99.90;;;;;;4995921;28;20050;-61
2023/10/31 06:41:23;;;;;;;5.38;3.13;;;8.00;99.90;;;;;;4996276;28;20066;-61
2023/10/31 06:43:50;;;;;;;4.70;3.20;;;8.00;99.90;;;;;;4995814;28;20042;-61
2023/10/31 06:46:16;;;;;;;6.22;3.05;;;8.00;99.90;;;;;;4995978;28;20046;-56
2023/10/31 06:48:43;;;;;;;8.75;3.80;;;8.00;99.90;;;;;;4995204;28;20096;-57
2023/10/31 06:51:10;;;;;;;5.95;2.90;;;8.00;99.90;;;;;;4996233;28;20108;-57
2023/10/31 06:53:37;;;;;;;6.70;3.20;;;8.00;99.90;;;;;;4994676;28;20130;-57
2023/10/31 06:56:03;;;;;;;5.32;2.80;;;8.10;99.90;;;;;;4994396;28;20038;-56
2023/10/31 06:58:30;;;;;;;8.77;3.40;;;8.10;99.90;;;;;;4994477;28;20038;-54
2023/10/31 07:00:58;;;;;;;5.30;3.40;;;8.10;99.90;;;;;;4994614;28;20129;-61
2023/10/31 07:03:25;;;;;;;9.60;7.30;;;8.10;99.90;;;;;;4994505;28;20121;-56
2023/10/31 07:05:52;;;;;;;7.97;4.85;;;8.10;99.90;;;;;;4994422;28;20073;-57
2023/10/31 07:08:19;;;;;;;7.32;3.20;;;8.10;99.90;;;;;;4994795;28;20050;-57
2023/10/31 07:10:46;;;;;;;4.45;2.75;;;8.20;99.90;;;;;;4978408;28;20112;-55
2023/10/31 07:13:13;;;;;;;5.25;2.80;;;8.20;99.90;;;;;;4995795;28;20125;-55
2023/10/31 07:15:39;;;;;;;7.13;2.95;;;8.20;99.90;;;;;;4996080;28;20038;-62
2023/10/31 07:18:07;;;;;;;7.57;2.70;;;8.30;99.90;;;;;;4995915;28;20043;-62
2023/10/31 07:20:34;;;;;;;5.18;2.22;;;8.30;99.90;;;;;;4995627;28;20065;-62
2023/10/31 07:23:01;;;;;;;6.07;2.00;;;8.40;99.90;;;;;;4995611;28;20042;-62
2023/10/31 07:25:27;;;;;;;7.90;2.10;;;8.40;99.90;;;;;;4978355;28;20050;-62
2023/10/31 07:27:54;;;;;;;7.55;1.50;;;8.50;99.90;;;;;;4995431;28;20439;-63
2023/10/31 07:30:21;;;;;;;5.78;1.70;;;8.60;99.90;;;;;;4995516;28;20048;-62
2023/10/31 07:32:48;;;;;;;8.20;1.50;;;8.60;99.90;;;;;;4978478;28;20046;-62
2023/10/31 07:35:15;;;;;;;8.02;1.35;;;8.70;99.90;;;;;;4995117;28;20045;-62
2023/10/31 07:37:42;;;;;;;5.07;1.30;;;8.90;99.90;;;;;;4994574;28;20459;-62
2023/10/31 07:40:08;;;;;;;7.05;1.23;;;8.90;99.90;;;;;;4995174;28;20042;-62
2023/10/31 07:42:35;;;;;;;7.75;1.60;;;9.00;99.90;;;;;;4995259;28;20054;-61
2023/10/31 07:45:02;;;;;;;5.85;1.30;;;9.10;99.90;;;;;;4995456;28;20038;-61
2023/10/31 07:47:29;;;;;;;4.60;1.17;;;9.20;99.90;;;;;;4994603;28;20038;-55
2023/10/31 07:49:56;;;;;;;2.65;1.10;;;9.20;99.90;;;;;;4977401;28;20487;-56
2023/10/31 07:52:22;;;;;;;4.40;1.15;;;9.30;99.90;;;;;;4995187;28;20047;-62
2023/10/31 07:54:49;;;;;;;4.05;1.20;;;9.30;99.90;;;;;;4994793;28;20470;-61
2023/10/31 07:57:16;;;;;;;4.65;1.10;;;9.40;99.90;;;;;;4994828;28;20078;-61
2023/10/31 07:59:43;;;;;;;4.18;1.00;;;9.40;99.90;;;;;;4978006;28;20050;-61
2023/10/31 08:02:10;;;;;;;6.22;1.50;;;9.50;99.90;;;;;;4994757;28;20097;-61
2023/10/31 08:04:37;;;;;;;6.20;1.35;;;9.50;99.90;;;;;;4994929;28;20487;-61
2023/10/31 08:07:03;;;;;;;4.30;1.17;;;9.60;99.90;;;;;;4994911;28;20129;-62
2023/10/31 08:09:30;;;;;;;5.13;1.50;;;9.70;99.90;;;;;;4994854;28;20486;-61
2023/10/31 08:11:57;;;;;;;6.78;1.20;;;9.70;99.90;;;;;;4994495;28;20042;-61
2023/10/31 08:14:24;;;;;;;6.68;1.20;;;9.70;99.90;;;;;;4994690;28;20065;-62
2023/10/31 08:16:52;;;;;;;9.45;1.42;;;9.80;99.90;;;;;;4994298;28;20056;-61
2023/10/31 08:19:19;;;;;;;5.95;1.27;;;9.80;99.90;;;;;;4993927;28;20357;-62
2023/10/31 08:21:46;;;;;;;4.85;1.15;;;9.80;99.90;;;;;;4994224;28;20150;-61
2023/10/31 08:24:13;;;;;;;5.20;1.55;;;9.90;99.90;;;;;;4994675;28;20042;-62
2023/10/31 08:26:40;;;;;;;4.18;1.02;;;9.90;99.90;;;;;;4994557;28;20038;-62
2023/10/31 08:29:07;;;;;;;7.60;1.75;;;9.90;99.90;;;;;;4994442;28;20065;-62
2023/10/31 08:31:33;;;;;;;7.35;2.55;;;10.00;99.90;;;;;;4994563;28;20064;-62
2023/10/31 08:34:00;;;;;;;5.05;1.30;;;10.00;99.90;;;;;;4994309;28;20118;-62
2023/10/31 08:36:28;;;;;;;5.32;1.20;;;10.00;99.90;;;;;;4994479;28;20468;-61
2023/10/31 08:38:55;;;;;;;4.82;1.17;;;10.00;99.90;;;;;;4994219;28;20511;-61
2023/10/31 08:41:22;;;;;;;7.85;1.65;;;10.10;99.90;;;;;;4994242;28;20046;-62
2023/10/31 08:43:49;;;;;;;5.97;1.40;;;10.10;99.90;;;;;;4994382;28;20069;-62
2023/10/31 08:46:16;;;;;;;5.03;0.90;;;10.10;99.90;;;;;;4993975;28;20424;-62
2023/10/31 08:48:43;;;;;;;4.57;0.80;;;10.10;99.90;;;;;;4994369;28;20554;-61
2023/10/31 08:51:10;;;;;;;4.85;1.00;;;10.10;99.90;;;;;;4994337;28;20430;-61
2023/10/31 08:53:36;;;;;;;3.75;1.27;;;10.10;99.90;;;;;;4993944;28;20495;-62
2023/10/31 08:56:03;;;;;;;5.05;1.30;;;10.10;99.90;;;;;;4994266;28;20121;-62
2023/10/31 08:58:30;;;;;;;4.03;1.10;;;10.10;99.90;;;;;;4994171;28;20046;-61
2023/10/31 09:00:57;;;;;;;7.90;1.25;;;10.20;99.90;;;;;;4993999;28;20050;-61
2023/10/31 09:03:24;;;;;;;8.95;1.25;;;10.20;99.90;;;;;;4993535;28;20142;-61
2023/10/31 09:05:51;;;;;;;4.75;1.20;;;10.20;99.90;;;;;;4993945;28;20050;-62
2023/10/31 09:08:18;;;;;;;12.18;2.38;;;10.30;99.90;;;;;;4993951;28;20381;-61
2023/10/31 09:10:46;;;;;;;4.47;1.40;;;10.30;99.90;;;;;;4993690;28;20137;-61
2023/10/31 09:13:13;;;;;;;6.93;1.60;;;10.40;99.90;;;;;;4994199;28;20054;-61
2023/10/31 09:15:41;;;;;;;8.18;1.60;;;10.50;99.90;;;;;;4993998;28;20046;-61
2023/10/31 09:18:07;;;;;;;5.30;1.20;;;10.60;99.90;;;;;;4993690;28;20042;-61
2023/10/31 09:20:35;;;;;;;7.85;1.30;;;10.70;99.90;;;;;;4993814;28;20042;-61
2023/10/31 09:23:01;;;;;;;6.85;1.55;;;10.70;99.90;;;;;;4993475;28;20066;-61
2023/10/31 09:25:30;;;;;;;4.40;1.50;;;10.80;99.90;;;;;;4994117;28;20360;-62
2023/10/31 09:27:58;;;;;;;5.75;1.45;;;10.90;99.90;;;;;;4993718;28;20074;-62
2023/10/31 09:30:26;;;;;;;6.93;1.67;;;10.90;99.90;;;;;;4995540;28;20046;-62
2023/10/31 09:32:52;;;;;;;8.65;1.70;;;11.00;99.90;;;;;;4997546;28;20051;-62
2023/10/31 09:35:19;;;;;;;6.80;2.13;;;11.10;99.90;;;;;;4997860;28;20042;-61
2023/10/31 09:37:48;;;;;;;4.88;1.30;;;11.10;99.90;;;;;;4996815;28;20058;-62
2023/10/31 09:40:16;;;;;;;6.05;1.30;;;11.20;99.90;;;;;;4997627;28;20054;-62
2023/10/31 09:42:42;;;;;;;7.40;1.50;;;11.20;99.90;;;;;;4980028;28;20432;-61
2023/10/31 09:45:09;;;;;;;6.35;1.40;;;11.20;99.90;;;;;;4997509;28;20092;-57
2023/10/31 09:47:36;;;;;;;6.10;1.40;;;11.20;99.90;;;;;;4997165;28;20042;-55
2023/10/31 09:50:03;;;;;;;8.77;1.90;;;11.30;99.90;;;;;;4997383;28;20050;-57
2023/10/31 09:52:30;;;;;;;5.70;1.58;;;11.40;99.90;;;;;;4997281;28;20038;-56
2023/10/31 09:54:57;;;;;;;8.05;1.92;;;11.40;99.90;;;;;;4997238;28;20050;-56
2023/10/31 09:57:26;;;;;;;6.28;1.85;;;11.40;99.90;;;;;;4996992;28;20069;-57
2023/10/31 09:59:53;;;;;;;7.72;1.77;;;11.50;99.90;;;;;;4997540;28;20488;-55
2023/10/31 10:02:22;;;;;;;6.05;1.60;;;11.50;99.90;;;;;;4997081;28;20038;-56
2023/10/31 10:04:50;;;;;;;6.85;1.90;;;11.50;99.90;;;;;;4997254;28;20377;-56
2023/10/31 10:07:17;;;;;;;7.10;1.90;;;11.50;99.90;;;;;;4996949;28;20076;-57
2023/10/31 10:09:45;;;;;;;10.85;2.10;;;11.50;99.90;;;;;;4997040;28;20057;-57
2023/10/31 10:12:12;;;;;;;14.20;7.20;;;11.60;99.90;;;;;;4996955;28;20070;-57
2023/10/31 10:14:38;;;;;;;4.90;1.98;;;11.60;99.90;;;;;;4996867;28;20045;-57
2023/10/31 10:17:05;;;;;;;5.18;1.83;;;11.60;99.90;;;;;;4996260;28;20077;-58
2023/10/31 10:19:34;;;;;;;7.35;1.73;;;11.70;99.90;;;;;;4996575;28;20050;-57
2023/10/31 10:22:01;;;;;;;5.15;1.85;;;11.70;99.90;;;;;;4996751;28;20038;-57
2023/10/31 10:24:27;;;;;;;5.88;2.03;;;11.70;99.90;;;;;;4996446;28;20118;-58
2023/10/31 10:26:54;;;;;;;4.85;1.63;;;11.80;99.90;;;;;;4996641;28;20126;-55
2023/10/31 10:29:21;;;;;;;6.07;1.77;;;11.80;99.90;;;;;;4996722;28;20046;-56
2023/10/31 10:31:48;;;;;;;5.13;1.50;;;11.80;99.90;;;;;;4996254;28;20066;-57
2023/10/31 10:34:16;;;;;;;4.70;1.60;;;11.90;99.90;;;;;;4996425;28;20046;-57
2023/10/31 10:36:42;;;;;;;8.43;1.70;;;11.90;99.90;;;;;;4996147;28;20074;-57
2023/10/31 10:39:09;;;;;;;4.75;1.50;;;11.90;99.90;;;;;;4996090;28;20049;-56
2023/10/31 10:41:36;;;;;;;5.68;1.67;;;12.00;99.90;;;;;;4995504;28;20042;-57
2023/10/31 10:44:03;;;;;;;6.25;1.52;;;12.00;99.90;;;;;;4978817;28;20046;-56
2023/10/31 10:46:30;;;;;;;3.65;1.58;;;12.00;99.90;;;;;;4996079;28;20046;-56
2023/10/31 10:48:57;;;;;;;7.95;1.67;;;12.10;99.90;;;;;;4995892;28;20129;-56
2023/10/31 10:51:24;;;;;;;6.90;2.28;;;12.10;99.90;;;;;;4995969;28;20050;-57
2023/10/31 10:53:51;;;;;;;6.75;1.77;;;12.20;99.90;;;;;;4996495;28;20042;-55
2023/10/31 10:56:18;;;;;;;7.07;2.30;;;12.20;99.90;;;;;;4996435;28;20084;-57
2023/10/31 10:58:45;;;;;;;9.52;2.20;;;12.20;99.90;;;;;;4978787;28;20061;-62
2023/10/31 11:01:11;;;;;;;9.82;1.80;;;12.30;99.90;;;;;;4996110;28;20085;-57
2023/10/31 11:03:38;;;;;;;11.80;2.25;;;12.30;99.90;;;;;;4996114;28;20035;-57
2023/10/31 11:06:05;;;;;;;8.05;2.05;;;12.30;99.90;;;;;;4995959;28;20042;-57
2023/10/31 11:08:32;;;;;;;6.97;2.10;;;12.30;99.90;;;;;;4996006;28;20093;-57
2023/10/31 11:10:59;;;;;;;6.90;1.90;;;12.40;99.90;;;;;;4978538;28;20066;-58
2023/10/31 11:13:26;;;;;;;8.75;2.53;;;12.40;99.90;;;;;;4978255;28;20042;-56
2023/10/31 11:15:53;;;;;;;5.38;2.33;;;12.50;99.90;;;;;;4995917;28;20096;-58
2023/10/31 11:18:20;;;;;;;6.50;2.15;;;12.50;99.90;;;;;;4995692;28;20494;-57
2023/10/31 11:20:47;;;;;;;6.75;2.15;;;12.50;99.90;;;;;;4995996;28;20084;-56
2023/10/31 11:23:14;;;;;;;5.60;2.00;;;12.60;99.90;;;;;;4978153;28;20518;-56
2023/10/31 11:25:41;;;;;;;7.28;2.17;;;12.60;99.90;;;;;;4995201;28;20050;-57
2023/10/31 11:28:08;;;;;;;7.63;2.22;;;12.70;99.90;;;;;;4995297;28;20554;-57
2023/10/31 11:30:35;;;;;;;8.30;2.25;;;12.80;99.90;;;;;;4995859;28;20383;-61
2023/10/31 11:33:02;;;;;;;7.78;2.10;;;12.90;99.90;;;;;;4995353;28;20526;-62
2023/10/31 11:35:29;;;;;;;10.40;2.00;;;12.90;99.90;;;;;;4995577;28;20042;-62
2023/10/31 11:37:56;;;;;;;9.40;1.60;;;12.90;99.90;;;;;;4995369;28;20050;-61
2023/10/31 11:40:23;;;;;;;6.50;2.00;;;13.00;99.90;;;;;;4995270;28;20073;-62
2023/10/31 11:42:50;;;;;;;9.63;2.10;;;13.00;99.90;;;;;;4995272;28;20066;-62
2023/10/31 11:45:17;;;;;;;8.05;2.17;;;13.10;99.90;;;;;;4995608;28;20040;-58
2023/10/31 11:47:44;;;;;;;6.03;1.50;;;13.10;99.90;;;;;;4995068;28;20447;-55
2023/10/31 11:50:11;;;;;;;7.15;1.90;;;13.20;99.90;;;;;;4994540;28;20054;-57
2023/10/31 11:52:38;;;;;;;5.03;1.70;;;13.20;99.90;;;;;;4994675;28;20061;-57
2023/10/31 11:55:05;;;;;;;8.45;1.85;;;13.20;99.90;;;;;;4994050;28;20428;-58
2023/10/31 11:57:32;;;;;;;7.22;1.80;;;13.20;99.90;;;;;;4994968;28;20132;-56
2023/10/31 11:59:59;;;;;;;7.20;1.90;;;13.30;99.90;;;;;;4995022;28;20047;-56
2023/10/31 12:02:26;;;;;;;8.63;1.90;;;13.40;99.90;;;;;;4995081;28;20539;-57
2023/10/31 12:04:53;;;;;;;6.45;1.38;;;13.50;99.90;;;;;;4994722;28;20141;-56
2023/10/31 12:07:20;;;;;;;8.50;1.50;;;13.60;99.90;;;;;;4994942;28;20060;-58
2023/10/31 12:09:47;;;;;;;6.38;1.50;;;13.70;99.90;;;;;;4994692;28;20487;-58
2023/10/31 12:12:14;;;;;;;5.93;1.40;;;13.90;99.90;;;;;;4995233;28;20042;-57
2023/10/31 12:14:41;;;;;;;6.68;1.50;;;13.90;99.90;;;;;;4994528;28;20077;-58
2023/10/31 12:17:09;;;;;;;6.18;1.75;;;13.90;99.90;;;;;;4994841;28;20042;-61
2023/10/31 12:19:36;;;;;;;5.65;1.35;;;14.00;99.90;;;;;;4994917;28;20038;-63
2023/10/31 12:22:03;;;;;;;6.63;1.60;;;13.90;99.90;;;;;;4976854;28;20431;-62
2023/10/31 12:24:30;;;;;;;5.30;1.10;;;14.00;99.90;;;;;;4994532;28;20097;-62
2023/10/31 12:26:57;;;;;;;6.35;1.27;;;14.10;99.90;;;;;;4994372;28;20101;-62
2023/10/31 12:29:24;;;;;;;4.82;1.02;;;14.10;99.90;;;;;;4994379;28;20038;-62
2023/10/31 12:31:52;;;;;;;5.53;1.10;;;14.10;99.90;;;;;;4994371;28;20460;-62
2023/10/31 12:34:19;;;;;;;5.00;0.90;;;14.20;99.90;;;;;;4994661;28;20046;-62
2023/10/31 12:36:46;;;;;;;10.35;1.30;;;14.30;99.90;;;;;;4994146;28;20517;-61
2023/10/31 12:39:12;;;;;;;4.90;1.10;;;14.50;99.90;;;;;;4994203;28;20104;-62
2023/10/31 12:41:39;;;;;;;7.95;1.27;;;14.60;99.90;;;;;;4994103;28;20043;-62
2023/10/31 12:44:08;;;;;;;4.80;1.10;;;14.70;99.90;;;;;;4994453;28;20044;-62
2023/10/31 12:46:35;;;;;;;4.65;1.00;;;14.70;99.90;;;;;;4993931;28;20039;-62
2023/10/31 12:49:02;;;;;;;4.75;1.20;;;14.70;99.90;;;;;;4976558;28;20177;-62
2023/10/31 12:51:28;;;;;;;5.70;1.35;;;14.80;99.90;;;;;;4994312;28;20068;-62